createdAt,value
2022-11-19T00:01:43.389Z,7.47
2022-11-19T00:07:18.921Z,7.55
2022-11-19T00:10:08.969Z,7.55
2022-11-19T00:12:58.157Z,7.59
2022-11-19T00:15:46.267Z,7.50
2022-11-19T00:21:22.766Z,7.58
2022-11-19T00:24:11.504Z,7.58
2022-11-19T00:29:46.679Z,7.52
2022-11-19T00:35:29.116Z,7.38
2022-11-19T00:38:17.833Z,7.26
2022-11-19T00:41:07.013Z,7.34
2022-11-19T00:46:41.481Z,7.38
2022-11-19T00:52:15.610Z,7.30
2022-11-19T00:55:06.756Z,7.23
2022-11-19T00:57:55.585Z,7.18
2022-11-19T01:00:43.975Z,7.17
2022-11-19T01:06:20.920Z,7.21
2022-11-19T01:11:54.629Z,7.20
2022-11-19T01:17:26.595Z,7.25
2022-11-19T01:25:33.664Z,7.21
2022-11-19T01:28:21.966Z,7.31
2022-11-19T01:34:00.117Z,7.28
2022-11-19T01:36:48.999Z,7.24
2022-11-19T01:42:24.237Z,7.21
2022-11-19T01:45:26.077Z,7.09
2022-11-19T01:50:55.938Z,7.31
2022-11-19T01:56:34.706Z,7.29
2022-11-19T01:59:23.360Z,7.20
2022-11-19T02:07:46.451Z,7.38
2022-11-19T02:13:26.641Z,7.48
2022-11-19T02:19:00.419Z,7.36
2022-11-19T02:24:48.834Z,7.32
2022-11-19T02:27:51.568Z,7.34
2022-11-19T02:30:41.479Z,7.38
2022-11-19T02:39:22.451Z,7.52
2022-11-19T02:42:14.806Z,7.51
2022-11-19T02:47:53.875Z,7.60
2022-11-19T02:53:27.590Z,7.60
2022-11-19T02:59:23.391Z,7.64
2022-11-19T03:04:54.154Z,7.64
2022-11-19T03:07:42.683Z,7.58
2022-11-19T03:22:25.019Z,7.55
2022-11-19T03:28:07.391Z,7.67
2022-11-19T03:33:36.328Z,7.62
2022-11-19T03:39:09.524Z,7.61
2022-11-19T03:44:47.830Z,7.65
2022-11-19T03:47:38.079Z,7.64
2022-11-19T03:53:19.391Z,7.77
2022-11-19T03:58:56.437Z,7.67
2022-11-19T04:01:46.300Z,7.57
2022-11-19T04:07:30.196Z,7.41
2022-11-19T04:13:01.280Z,7.23
2022-11-19T04:15:58.940Z,7.07
2022-11-19T04:21:33.660Z,6.80
2022-11-19T04:27:03.190Z,6.53
2022-11-19T04:32:56.394Z,6.63
2022-11-19T04:38:25.811Z,6.60
2022-11-19T04:41:14.346Z,6.65
2022-11-19T04:46:44.161Z,6.69
2022-11-19T04:52:19.884Z,6.67
2022-11-19T04:57:52.968Z,6.74
2022-11-19T05:00:41.234Z,6.68
2022-11-19T05:06:18.451Z,6.58
2022-11-19T05:11:54.277Z,6.49
2022-11-19T05:17:31.237Z,6.45
2022-11-19T05:20:20.049Z,6.39
2022-11-19T05:25:56.115Z,6.36
2022-11-19T05:31:36.262Z,6.44
2022-11-19T05:37:12.196Z,6.32
2022-11-19T05:40:01.223Z,6.24
2022-11-19T05:45:37.427Z,6.20
2022-11-19T05:48:25.833Z,6.15
2022-11-19T05:54:03.619Z,6.18
2022-11-19T05:56:52.205Z,6.11
2022-11-19T05:59:43.780Z,6.08
2022-11-19T06:05:12.262Z,6.31
2022-11-19T06:10:40.935Z,6.50
2022-11-19T06:18:55.216Z,6.38
2022-11-19T06:24:29.619Z,6.05
2022-11-19T06:30:05.446Z,6.28
2022-11-19T06:38:21.527Z,6.28
2022-11-19T06:43:59.848Z,6.12
2022-11-19T06:47:07.072Z,6.08
2022-11-19T06:52:34.350Z,6.34
2022-11-19T07:01:01.736Z,6.13
2022-11-19T07:06:37.145Z,6.38
2022-11-19T07:12:07.083Z,6.43
2022-11-19T07:17:38.036Z,6.32
2022-11-19T07:20:28.067Z,6.36
2022-11-19T07:26:03.132Z,6.46
2022-11-19T07:31:34.365Z,6.49
2022-11-19T07:34:22.614Z,6.61
2022-11-19T07:45:24.222Z,7.03
2022-11-19T07:50:56.444Z,7.19
2022-11-19T07:53:46.548Z,7.30
2022-11-19T07:59:16.071Z,7.67
2022-11-19T08:04:53.126Z,7.71
2022-11-19T08:10:21.631Z,7.91
2022-11-19T08:15:49.614Z,8.15
2022-11-19T08:18:38.325Z,8.25
2022-11-19T08:24:19.731Z,8.73
2022-11-19T08:29:51.310Z,8.76
2022-11-19T08:35:20.211Z,9.17
2022-11-19T08:38:09.915Z,9.28
2022-11-19T08:43:38.807Z,9.70
2022-11-19T08:46:26.879Z,9.77
2022-11-19T08:54:49.046Z,10.14
2022-11-19T08:57:38.150Z,10.45
2022-11-19T09:03:04.549Z,10.56
2022-11-19T09:08:40.603Z,10.80
2022-11-19T09:11:29.062Z,10.81
2022-11-19T09:17:07.291Z,10.76
2022-11-19T09:28:03.835Z,11.12
2022-11-19T09:33:39.995Z,10.54
2022-11-19T09:39:38.929Z,10.38
2022-11-19T09:42:32.381Z,9.78
2022-11-19T09:49:15.258Z,10.15
2022-11-19T09:55:27.103Z,9.94
2022-11-19T10:01:28.974Z,9.50
2022-11-19T10:08:01.877Z,9.56
2022-11-19T10:17:16.957Z,9.37
2022-11-19T10:23:40.014Z,9.42
2022-11-19T10:26:33.784Z,9.28
2022-11-19T10:32:31.371Z,9.52
2022-11-19T10:35:22.967Z,9.38
2022-11-19T10:40:57.964Z,9.03
2022-11-19T10:49:23.337Z,9.22
2022-11-19T10:55:23.682Z,9.16
2022-11-19T11:01:05.328Z,9.23
2022-11-19T11:06:53.215Z,9.02
2022-11-19T11:12:46.309Z,8.96
2022-11-19T11:18:17.491Z,8.93
2022-11-19T11:23:53.361Z,9.27
2022-11-19T11:29:29.879Z,9.51
2022-11-19T11:32:31.771Z,9.54
2022-11-19T11:46:50.256Z,10.16
2022-11-19T11:52:30.861Z,10.28
2022-11-19T11:58:28.425Z,9.86
2022-11-19T12:01:18.561Z,9.50
2022-11-19T12:06:51.429Z,9.51
2022-11-19T12:09:44.702Z,9.64
2022-11-19T12:15:19.902Z,10.20
2022-11-19T12:20:58.577Z,10.99
2022-11-19T12:29:28.866Z,11.86
2022-11-19T12:35:26.487Z,10.94
2022-11-19T12:38:25.440Z,10.58
2022-11-19T12:44:00.673Z,10.01
2022-11-19T12:49:53.331Z,9.77
2022-11-19T12:55:40.192Z,9.36
2022-11-19T13:01:15.470Z,9.55
2022-11-19T13:06:55.110Z,9.75
2022-11-19T13:09:46.111Z,9.59
2022-11-19T13:15:20.929Z,9.59
2022-11-19T13:20:50.832Z,9.51
2022-11-19T13:26:26.750Z,9.46
2022-11-19T13:31:58.867Z,9.18
2022-11-19T13:38:00.060Z,9.13
2022-11-19T13:44:00.351Z,9.12
2022-11-19T13:52:24.739Z,9.23
2022-11-19T13:55:28.975Z,9.10
2022-11-19T14:01:46.088Z,9.45
2022-11-19T14:10:43.687Z,9.78
2022-11-19T14:13:41.604Z,9.82
2022-11-19T14:19:33.349Z,10.03
2022-11-19T14:26:00.658Z,10.01
2022-11-19T14:31:53.029Z,9.86
2022-11-19T14:37:33.514Z,9.79
2022-11-19T14:40:23.388Z,9.53
2022-11-19T14:43:46.353Z,9.54
2022-11-19T14:46:35.525Z,9.38
2022-11-19T14:52:23.022Z,9.40
2022-11-19T14:58:12.387Z,9.43
2022-11-19T15:01:09.710Z,9.32
2022-11-19T15:06:47.966Z,8.77
2022-11-19T15:15:41.722Z,8.57
2022-11-19T15:19:12.801Z,8.61
2022-11-19T15:22:23.253Z,8.55
2022-11-19T15:28:24.426Z,8.30
2022-11-19T15:31:22.371Z,8.32
2022-11-19T15:34:38.610Z,8.05
2022-11-19T15:40:15.100Z,7.95
2022-11-19T15:45:52.248Z,8.02
2022-11-19T15:48:43.758Z,7.94
2022-11-19T15:54:40.986Z,7.88
2022-11-19T16:00:21.069Z,7.99
2022-11-19T16:03:11.612Z,7.95
2022-11-19T16:08:49.263Z,8.07
2022-11-19T16:14:40.671Z,8.11
2022-11-19T16:20:22.133Z,8.15
2022-11-19T16:23:11.785Z,8.16
2022-11-19T16:28:51.657Z,8.24
2022-11-19T16:34:26.671Z,8.27
2022-11-19T16:39:54.870Z,8.34
2022-11-19T16:45:39.918Z,8.21
2022-11-19T16:51:45.801Z,7.89
2022-11-19T16:57:31.830Z,8.08
2022-11-19T17:03:02.128Z,8.10
2022-11-19T17:08:32.102Z,8.24
2022-11-19T17:14:20.480Z,8.34
2022-11-19T17:20:01.628Z,8.39
2022-11-19T17:22:49.749Z,8.35
2022-11-19T17:25:37.895Z,8.25
2022-11-19T17:28:37.909Z,8.21
2022-11-19T17:34:20.572Z,8.29
2022-11-19T17:39:57.103Z,8.36
2022-11-19T17:45:32.467Z,8.37
2022-11-19T17:51:15.078Z,8.29
2022-11-19T17:54:04.271Z,8.23
2022-11-19T17:56:54.206Z,8.21
2022-11-19T18:02:24.082Z,8.28
2022-11-19T18:08:04.043Z,8.26
2022-11-19T18:13:36.359Z,8.17
2022-11-19T18:19:14.736Z,8.07
2022-11-19T18:22:02.971Z,8.04
2022-11-19T18:27:38.808Z,8.16
2022-11-19T18:33:10.410Z,8.12
2022-11-19T18:38:42.526Z,8.14
2022-11-19T18:44:34.390Z,8.18
2022-11-19T18:50:13.483Z,7.90
2022-11-19T18:53:03.500Z,7.80
2022-11-19T18:58:36.659Z,7.86
2022-11-19T19:01:25.390Z,7.77
2022-11-19T19:06:55.933Z,7.72
2022-11-19T19:12:25.789Z,7.72
2022-11-19T19:18:06.441Z,7.51
2022-11-19T19:23:35.790Z,7.68
2022-11-19T19:26:25.367Z,7.76
2022-11-19T19:31:55.335Z,7.69
2022-11-19T19:34:45.565Z,7.65
2022-11-19T19:37:34.853Z,7.55
2022-11-19T19:40:23.421Z,7.67
2022-11-19T19:43:12.938Z,7.46
2022-11-19T19:46:05.599Z,7.42
2022-11-19T19:51:41.408Z,7.43
2022-11-19T19:54:29.699Z,7.28
2022-11-19T20:00:19.282Z,7.38
2022-11-19T20:05:51.898Z,7.48
2022-11-19T20:11:24.122Z,7.37
2022-11-19T20:16:58.414Z,7.11
2022-11-19T20:22:33.106Z,7.17
2022-11-19T20:28:08.669Z,7.05
2022-11-19T20:33:50.644Z,7.02
2022-11-19T20:36:38.802Z,6.76
2022-11-19T20:39:26.655Z,6.91
2022-11-19T20:45:02.248Z,6.95
2022-11-19T20:47:50.614Z,6.71
2022-11-19T20:53:26.027Z,6.90
2022-11-19T20:58:56.488Z,6.92
2022-11-19T21:01:44.814Z,6.93
2022-11-19T21:04:35.516Z,7.05
2022-11-19T21:10:23.597Z,6.95
2022-11-19T21:15:54.774Z,6.84
2022-11-19T21:18:43.300Z,6.85
2022-11-19T21:21:31.721Z,6.67
2022-11-19T21:27:08.898Z,6.65
2022-11-19T21:29:56.590Z,6.57
2022-11-19T21:32:45.822Z,6.50
2022-11-19T21:35:34.965Z,6.55
2022-11-19T21:38:24.226Z,6.51
2022-11-19T21:41:12.331Z,6.43
2022-11-19T21:44:01.865Z,6.18
2022-11-19T21:49:37.892Z,6.21
2022-11-19T21:55:15.467Z,6.21
2022-11-19T21:58:05.909Z,6.15
2022-11-19T22:19:10.912Z,5.90
2022-11-19T22:29:12.782Z,5.66
2022-11-19T22:32:06.503Z,5.58
2022-11-19T22:37:34.767Z,6.27
2022-11-19T22:40:22.941Z,6.15
2022-11-19T22:46:00.332Z,6.09
2022-11-19T22:48:51.846Z,5.90
2022-11-19T22:51:42.075Z,5.94
2022-11-19T22:59:51.124Z,5.69
2022-11-19T23:05:21.606Z,5.86
2022-11-19T23:11:03.409Z,5.82
2022-11-19T23:16:38.915Z,5.79
2022-11-19T23:22:07.369Z,6.02
2022-11-19T23:27:49.096Z,6.02
2022-11-19T23:30:38.761Z,6.17
2022-11-19T23:36:14.286Z,6.43
2022-11-19T23:41:44.233Z,6.63
2022-11-19T23:47:12.999Z,6.73
2022-11-19T23:52:53.070Z,6.57
2022-11-19T23:58:22.521Z,6.50
